Terminal Aerodrome Forecast
Issued by NWS Cleveland, OH

Home | Current Version | Previous Version | Graphics & Text | Print | Product List | Glossary On
Versions: 1 2 3 4 5 6 7 8 9 10 11 12 13 14 15 16 17 18 19
677
FTUS41 KCLE 052335
TAFYNG
TAF
KYNG 052335Z 0600/0624 36012KT P6SM FEW030 SCT100
     FM060300 35005KT P6SM BKN100
     FM061000 35004KT P6SM SCT250
      TEMPO 0610/0612 4SM BR
     FM061600 35012G20KT P6SM FEW050 SCT250=

USA.gov is the U.S. government's official web portal to all federal, state and local government web resources and services.